sensor_id;sensor_type;location;lat;lon;timestamp;P1;durP1;ratioP1;P2;durP2;ratioP2
18929;SDS011;43305;52.186;5.598;2023-04-15T00:00:59;6.85;;;4.10;;
18929;SDS011;43305;52.186;5.598;2023-04-15T00:03:26;9.15;;;4.22;;
18929;SDS011;43305;52.186;5.598;2023-04-15T00:05:59;8.55;;;4.38;;
18929;SDS011;43305;52.186;5.598;2023-04-15T00:08:34;10.15;;;4.43;;
18929;SDS011;43305;52.186;5.598;2023-04-15T00:14:00;9.60;;;4.20;;
18929;SDS011;43305;52.186;5.598;2023-04-15T00:16:36;10.93;;;4.43;;
18929;SDS011;43305;52.186;5.598;2023-04-15T00:19:07;13.63;;;4.38;;
18929;SDS011;43305;52.186;5.598;2023-04-15T00:21:45;10.82;;;4.38;;
18929;SDS011;43305;52.186;5.598;2023-04-15T00:24:19;12.23;;;4.22;;
18929;SDS011;43305;52.186;5.598;2023-04-15T00:26:59;9.38;;;4.22;;
18929;SDS011;43305;52.186;5.598;2023-04-15T00:29:36;8.30;;;4.18;;
18929;SDS011;43305;52.186;5.598;2023-04-15T00:32:06;9.60;;;4.35;;
18929;SDS011;43305;52.186;5.598;2023-04-15T00:34:37;9.90;;;4.68;;
18929;SDS011;43305;52.186;5.598;2023-04-15T00:37:11;11.07;;;4.80;;
18929;SDS011;43305;52.186;5.598;2023-04-15T00:39:45;12.80;;;4.35;;
18929;SDS011;43305;52.186;5.598;2023-04-15T00:42:26;11.82;;;4.20;;
18929;SDS011;43305;52.186;5.598;2023-04-15T00:45:09;8.82;;;4.22;;
18929;SDS011;43305;52.186;5.598;2023-04-15T00:47:40;10.82;;;4.22;;
18929;SDS011;43305;52.186;5.598;2023-04-15T00:50:21;10.63;;;4.63;;
18929;SDS011;43305;52.186;5.598;2023-04-15T00:52:51;12.90;;;4.38;;
18929;SDS011;43305;52.186;5.598;2023-04-15T00:55:27;8.40;;;4.50;;
18929;SDS011;43305;52.186;5.598;2023-04-15T00:58:07;8.38;;;4.32;;
18929;SDS011;43305;52.186;5.598;2023-04-15T01:00:37;7.57;;;4.10;;
18929;SDS011;43305;52.186;5.598;2023-04-15T01:03:11;9.30;;;4.00;;
18929;SDS011;43305;52.186;5.598;2023-04-15T01:05:59;9.65;;;4.40;;
18929;SDS011;43305;52.186;5.598;2023-04-15T01:08:35;9.48;;;4.20;;
18929;SDS011;43305;52.186;5.598;2023-04-15T01:11:03;10.32;;;4.18;;
18929;SDS011;43305;52.186;5.598;2023-04-15T01:13:38;8.75;;;4.10;;
18929;SDS011;43305;52.186;5.598;2023-04-15T01:16:17;8.02;;;4.07;;
18929;SDS011;43305;52.186;5.598;2023-04-15T01:21:47;11.50;;;4.18;;
18929;SDS011;43305;52.186;5.598;2023-04-15T01:24:27;7.50;;;4.05;;
18929;SDS011;43305;52.186;5.598;2023-04-15T01:27:00;12.15;;;4.32;;
18929;SDS011;43305;52.186;5.598;2023-04-15T01:29:30;8.35;;;3.90;;
18929;SDS011;43305;52.186;5.598;2023-04-15T01:32:02;8.57;;;4.10;;
18929;SDS011;43305;52.186;5.598;2023-04-15T01:34:35;9.82;;;4.40;;
18929;SDS011;43305;52.186;5.598;2023-04-15T01:37:12;8.88;;;4.20;;
18929;SDS011;43305;52.186;5.598;2023-04-15T01:39:44;9.40;;;4.28;;
18929;SDS011;43305;52.186;5.598;2023-04-15T01:42:26;10.00;;;4.35;;
18929;SDS011;43305;52.186;5.598;2023-04-15T01:44:59;9.02;;;4.25;;
18929;SDS011;43305;52.186;5.598;2023-04-15T01:47:44;12.88;;;4.60;;
18929;SDS011;43305;52.186;5.598;2023-04-15T01:50:22;11.40;;;4.50;;
18929;SDS011;43305;52.186;5.598;2023-04-15T01:55:46;7.22;;;3.92;;
18929;SDS011;43305;52.186;5.598;2023-04-15T01:58:23;10.07;;;4.72;;
18929;SDS011;43305;52.186;5.598;2023-04-15T02:00:55;12.98;;;5.13;;
18929;SDS011;43305;52.186;5.598;2023-04-15T02:03:39;8.05;;;4.55;;
18929;SDS011;43305;52.186;5.598;2023-04-15T02:06:09;9.15;;;4.70;;
18929;SDS011;43305;52.186;5.598;2023-04-15T02:08:52;6.95;;;4.65;;
18929;SDS011;43305;52.186;5.598;2023-04-15T02:11:25;9.25;;;4.72;;
18929;SDS011;43305;52.186;5.598;2023-04-15T02:14:03;8.70;;;4.43;;
18929;SDS011;43305;52.186;5.598;2023-04-15T02:16:49;9.70;;;4.55;;
18929;SDS011;43305;52.186;5.598;2023-04-15T02:19:38;12.70;;;4.90;;
18929;SDS011;43305;52.186;5.598;2023-04-15T02:22:12;9.32;;;4.60;;
18929;SDS011;43305;52.186;5.598;2023-04-15T02:24:58;10.05;;;4.82;;
18929;SDS011;43305;52.186;5.598;2023-04-15T02:27:45;8.48;;;4.88;;
18929;SDS011;43305;52.186;5.598;2023-04-15T02:30:25;8.20;;;4.75;;
18929;SDS011;43305;52.186;5.598;2023-04-15T02:33:05;9.35;;;4.70;;
18929;SDS011;43305;52.186;5.598;2023-04-15T02:35:40;10.82;;;5.13;;
18929;SDS011;43305;52.186;5.598;2023-04-15T02:38:17;11.13;;;5.20;;
18929;SDS011;43305;52.186;5.598;2023-04-15T02:40:54;9.07;;;4.93;;
18929;SDS011;43305;52.186;5.598;2023-04-15T02:43:35;11.32;;;5.40;;
18929;SDS011;43305;52.186;5.598;2023-04-15T02:48:53;10.95;;;5.25;;
18929;SDS011;43305;52.186;5.598;2023-04-15T02:51:44;11.73;;;5.63;;
18929;SDS011;43305;52.186;5.598;2023-04-15T02:54:15;9.52;;;5.53;;
18929;SDS011;43305;52.186;5.598;2023-04-15T02:56:53;11.45;;;5.60;;
18929;SDS011;43305;52.186;5.598;2023-04-15T02:59:32;10.30;;;5.45;;
18929;SDS011;43305;52.186;5.598;2023-04-15T03:02:08;11.27;;;5.22;;
18929;SDS011;43305;52.186;5.598;2023-04-15T03:04:51;12.15;;;5.50;;
18929;SDS011;43305;52.186;5.598;2023-04-15T03:07:55;9.60;;;5.68;;
18929;SDS011;43305;52.186;5.598;2023-04-15T03:10:26;10.68;;;5.47;;
18929;SDS011;43305;52.186;5.598;2023-04-15T03:13:02;14.27;;;5.97;;
18929;SDS011;43305;52.186;5.598;2023-04-15T03:15:50;9.30;;;5.72;;
18929;SDS011;43305;52.186;5.598;2023-04-15T03:18:33;13.23;;;6.45;;
18929;SDS011;43305;52.186;5.598;2023-04-15T03:21:12;10.60;;;5.57;;
18929;SDS011;43305;52.186;5.598;2023-04-15T03:23:43;11.40;;;6.32;;
18929;SDS011;43305;52.186;5.598;2023-04-15T03:26:22;12.10;;;6.10;;
18929;SDS011;43305;52.186;5.598;2023-04-15T03:29:22;11.75;;;5.80;;
18929;SDS011;43305;52.186;5.598;2023-04-15T03:31:54;11.15;;;6.30;;
18929;SDS011;43305;52.186;5.598;2023-04-15T03:34:35;10.20;;;6.38;;
18929;SDS011;43305;52.186;5.598;2023-04-15T03:37:10;10.60;;;6.13;;
18929;SDS011;43305;52.186;5.598;2023-04-15T03:39:55;15.05;;;6.15;;
18929;SDS011;43305;52.186;5.598;2023-04-15T03:42:35;12.73;;;5.90;;
18929;SDS011;43305;52.186;5.598;2023-04-15T03:45:16;13.65;;;6.57;;
18929;SDS011;43305;52.186;5.598;2023-04-15T03:47:43;11.93;;;6.55;;
18929;SDS011;43305;52.186;5.598;2023-04-15T03:50:15;12.70;;;6.65;;
18929;SDS011;43305;52.186;5.598;2023-04-15T03:52:46;10.27;;;6.32;;
18929;SDS011;43305;52.186;5.598;2023-04-15T03:55:15;10.65;;;6.30;;
18929;SDS011;43305;52.186;5.598;2023-04-15T03:57:42;11.18;;;6.55;;
18929;SDS011;43305;52.186;5.598;2023-04-15T04:00:12;12.90;;;6.45;;
18929;SDS011;43305;52.186;5.598;2023-04-15T04:02:39;12.60;;;6.65;;
18929;SDS011;43305;52.186;5.598;2023-04-15T04:05:07;10.25;;;6.32;;
18929;SDS011;43305;52.186;5.598;2023-04-15T04:07:38;12.57;;;6.97;;
18929;SDS011;43305;52.186;5.598;2023-04-15T04:10:06;13.50;;;6.70;;
18929;SDS011;43305;52.186;5.598;2023-04-15T04:12:33;14.23;;;7.00;;
18929;SDS011;43305;52.186;5.598;2023-04-15T04:15:00;13.90;;;6.85;;
18929;SDS011;43305;52.186;5.598;2023-04-15T04:17:27;13.05;;;6.97;;
18929;SDS011;43305;52.186;5.598;2023-04-15T04:19:54;12.18;;;6.90;;
18929;SDS011;43305;52.186;5.598;2023-04-15T04:22:21;10.52;;;6.65;;
18929;SDS011;43305;52.186;5.598;2023-04-15T04:24:51;13.38;;;6.78;;
18929;SDS011;43305;52.186;5.598;2023-04-15T04:27:18;11.80;;;6.72;;
18929;SDS011;43305;52.186;5.598;2023-04-15T04:29:48;11.73;;;6.93;;
18929;SDS011;43305;52.186;5.598;2023-04-15T04:32:23;13.05;;;7.00;;
18929;SDS011;43305;52.186;5.598;2023-04-15T04:34:52;13.27;;;6.90;;
18929;SDS011;43305;52.186;5.598;2023-04-15T04:37:22;11.63;;;7.28;;
18929;SDS011;43305;52.186;5.598;2023-04-15T04:39:54;14.13;;;6.75;;
18929;SDS011;43305;52.186;5.598;2023-04-15T04:42:21;12.23;;;6.97;;
18929;SDS011;43305;52.186;5.598;2023-04-15T04:44:51;13.23;;;7.35;;
18929;SDS011;43305;52.186;5.598;2023-04-15T04:47:20;14.38;;;8.10;;
18929;SDS011;43305;52.186;5.598;2023-04-15T04:49:48;13.27;;;7.43;;
18929;SDS011;43305;52.186;5.598;2023-04-15T04:52:15;13.68;;;7.88;;
18929;SDS011;43305;52.186;5.598;2023-04-15T04:54:42;15.23;;;7.72;;
18929;SDS011;43305;52.186;5.598;2023-04-15T04:57:11;14.43;;;7.90;;
18929;SDS011;43305;52.186;5.598;2023-04-15T04:59:39;14.88;;;7.95;;
18929;SDS011;43305;52.186;5.598;2023-04-15T05:02:06;12.43;;;7.70;;
18929;SDS011;43305;52.186;5.598;2023-04-15T05:04:33;14.68;;;8.30;;
18929;SDS011;43305;52.186;5.598;2023-04-15T05:07:02;14.63;;;7.70;;
18929;SDS011;43305;52.186;5.598;2023-04-15T05:09:29;12.00;;;7.38;;
18929;SDS011;43305;52.186;5.598;2023-04-15T05:11:57;17.00;;;8.02;;
18929;SDS011;43305;52.186;5.598;2023-04-15T05:14:27;14.18;;;8.23;;
18929;SDS011;43305;52.186;5.598;2023-04-15T05:16:54;15.43;;;7.97;;
18929;SDS011;43305;52.186;5.598;2023-04-15T05:19:22;13.98;;;8.40;;
18929;SDS011;43305;52.186;5.598;2023-04-15T05:21:50;14.50;;;8.57;;
18929;SDS011;43305;52.186;5.598;2023-04-15T05:24:17;14.82;;;8.30;;
18929;SDS011;43305;52.186;5.598;2023-04-15T05:26:49;16.20;;;8.82;;
18929;SDS011;43305;52.186;5.598;2023-04-15T05:29:19;16.67;;;8.80;;
18929;SDS011;43305;52.186;5.598;2023-04-15T05:31:56;17.38;;;9.43;;
18929;SDS011;43305;52.186;5.598;2023-04-15T05:34:27;17.63;;;9.80;;
18929;SDS011;43305;52.186;5.598;2023-04-15T05:36:54;17.27;;;9.25;;
18929;SDS011;43305;52.186;5.598;2023-04-15T05:39:23;16.13;;;9.43;;
18929;SDS011;43305;52.186;5.598;2023-04-15T05:41:50;18.38;;;9.60;;
18929;SDS011;43305;52.186;5.598;2023-04-15T05:44:24;17.73;;;8.93;;
18929;SDS011;43305;52.186;5.598;2023-04-15T05:46:53;19.65;;;9.48;;
18929;SDS011;43305;52.186;5.598;2023-04-15T05:49:20;16.10;;;9.50;;
18929;SDS011;43305;52.186;5.598;2023-04-15T05:51:48;17.48;;;9.65;;
18929;SDS011;43305;52.186;5.598;2023-04-15T05:54:17;16.35;;;9.38;;
18929;SDS011;43305;52.186;5.598;2023-04-15T05:56:52;16.40;;;9.75;;
18929;SDS011;43305;52.186;5.598;2023-04-15T05:59:20;15.00;;;9.30;;
18929;SDS011;43305;52.186;5.598;2023-04-15T06:01:47;14.77;;;9.45;;
18929;SDS011;43305;52.186;5.598;2023-04-15T06:04:17;14.95;;;9.18;;
18929;SDS011;43305;52.186;5.598;2023-04-15T06:06:45;17.83;;;9.68;;
18929;SDS011;43305;52.186;5.598;2023-04-15T06:09:12;16.08;;;9.75;;
18929;SDS011;43305;52.186;5.598;2023-04-15T06:11:39;18.38;;;9.95;;
18929;SDS011;43305;52.186;5.598;2023-04-15T06:14:06;16.88;;;9.48;;
18929;SDS011;43305;52.186;5.598;2023-04-15T06:16:36;17.45;;;9.50;;
18929;SDS011;43305;52.186;5.598;2023-04-15T06:19:03;18.13;;;9.73;;
18929;SDS011;43305;52.186;5.598;2023-04-15T06:21:31;18.63;;;9.82;;
18929;SDS011;43305;52.186;5.598;2023-04-15T06:23:58;17.52;;;9.15;;
18929;SDS011;43305;52.186;5.598;2023-04-15T06:26:27;19.73;;;9.95;;
18929;SDS011;43305;52.186;5.598;2023-04-15T06:28:55;18.27;;;9.77;;
18929;SDS011;43305;52.186;5.598;2023-04-15T06:31:22;15.13;;;8.73;;
18929;SDS011;43305;52.186;5.598;2023-04-15T06:33:49;14.75;;;9.35;;
18929;SDS011;43305;52.186;5.598;2023-04-15T06:36:19;14.32;;;8.95;;
18929;SDS011;43305;52.186;5.598;2023-04-15T06:38:50;14.00;;;8.63;;
18929;SDS011;43305;52.186;5.598;2023-04-15T06:41:18;15.35;;;8.90;;
18929;SDS011;43305;52.186;5.598;2023-04-15T06:43:47;16.23;;;8.85;;
18929;SDS011;43305;52.186;5.598;2023-04-15T06:46:15;15.35;;;9.15;;
18929;SDS011;43305;52.186;5.598;2023-04-15T06:48:44;15.40;;;8.75;;
18929;SDS011;43305;52.186;5.598;2023-04-15T06:51:11;15.98;;;8.88;;
18929;SDS011;43305;52.186;5.598;2023-04-15T06:53:38;13.15;;;8.48;;
18929;SDS011;43305;52.186;5.598;2023-04-15T06:56:09;15.80;;;8.63;;
18929;SDS011;43305;52.186;5.598;2023-04-15T06:58:36;17.60;;;9.77;;
18929;SDS011;43305;52.186;5.598;2023-04-15T07:01:03;14.30;;;8.93;;
18929;SDS011;43305;52.186;5.598;2023-04-15T07:03:30;14.65;;;9.13;;
18929;SDS011;43305;52.186;5.598;2023-04-15T07:05:57;17.58;;;9.80;;
18929;SDS011;43305;52.186;5.598;2023-04-15T07:08:25;15.68;;;8.73;;
18929;SDS011;43305;52.186;5.598;2023-04-15T07:10:52;14.38;;;8.35;;
18929;SDS011;43305;52.186;5.598;2023-04-15T07:13:22;12.82;;;7.80;;
18929;SDS011;43305;52.186;5.598;2023-04-15T07:15:50;13.70;;;7.97;;
18929;SDS011;43305;52.186;5.598;2023-04-15T07:18:18;12.73;;;7.75;;
18929;SDS011;43305;52.186;5.598;2023-04-15T07:20:45;12.18;;;7.85;;
18929;SDS011;43305;52.186;5.598;2023-04-15T07:23:12;11.82;;;7.18;;
18929;SDS011;43305;52.186;5.598;2023-04-15T07:25:40;10.98;;;6.97;;
18929;SDS011;43305;52.186;5.598;2023-04-15T07:28:07;11.30;;;6.78;;
18929;SDS011;43305;52.186;5.598;2023-04-15T07:30:38;11.10;;;6.70;;
18929;SDS011;43305;52.186;5.598;2023-04-15T07:33:05;10.30;;;6.60;;
18929;SDS011;43305;52.186;5.598;2023-04-15T07:35:32;10.88;;;6.10;;
18929;SDS011;43305;52.186;5.598;2023-04-15T07:38:06;11.00;;;6.30;;
18929;SDS011;43305;52.186;5.598;2023-04-15T07:40:44;13.95;;;5.80;;
18929;SDS011;43305;52.186;5.598;2023-04-15T07:43:12;8.50;;;5.35;;
18929;SDS011;43305;52.186;5.598;2023-04-15T07:45:40;12.10;;;5.85;;
18929;SDS011;43305;52.186;5.598;2023-04-15T07:48:09;8.02;;;5.90;;
18929;SDS011;43305;52.186;5.598;2023-04-15T07:50:36;9.52;;;5.53;;
18929;SDS011;43305;52.186;5.598;2023-04-15T07:53:05;8.52;;;5.32;;
18929;SDS011;43305;52.186;5.598;2023-04-15T07:55:32;10.88;;;5.40;;
18929;SDS011;43305;52.186;5.598;2023-04-15T07:58:02;9.82;;;5.63;;
18929;SDS011;43305;52.186;5.598;2023-04-15T08:00:29;8.77;;;5.03;;
18929;SDS011;43305;52.186;5.598;2023-04-15T08:02:58;10.27;;;5.65;;
18929;SDS011;43305;52.186;5.598;2023-04-15T08:05:27;6.57;;;4.40;;
18929;SDS011;43305;52.186;5.598;2023-04-15T08:07:54;7.25;;;4.57;;
18929;SDS011;43305;52.186;5.598;2023-04-15T08:10:22;6.55;;;4.40;;
18929;SDS011;43305;52.186;5.598;2023-04-15T08:12:50;7.07;;;4.20;;
18929;SDS011;43305;52.186;5.598;2023-04-15T08:15:22;6.85;;;4.00;;
18929;SDS011;43305;52.186;5.598;2023-04-15T08:17:53;7.88;;;4.65;;
18929;SDS011;43305;52.186;5.598;2023-04-15T08:20:31;10.00;;;6.55;;
18929;SDS011;43305;52.186;5.598;2023-04-15T08:26:15;15.85;;;9.25;;
18929;SDS011;43305;52.186;5.598;2023-04-15T08:28:57;18.75;;;9.45;;
18929;SDS011;43305;52.186;5.598;2023-04-15T08:31:28;19.73;;;9.85;;
18929;SDS011;43305;52.186;5.598;2023-04-15T08:34:26;18.75;;;9.88;;
18929;SDS011;43305;52.186;5.598;2023-04-15T08:40:05;16.70;;;8.82;;
18929;SDS011;43305;52.186;5.598;2023-04-15T08:42:42;14.88;;;8.32;;
18929;SDS011;43305;52.186;5.598;2023-04-15T08:45:13;14.05;;;7.97;;
18929;SDS011;43305;52.186;5.598;2023-04-15T08:49:41;14.05;;;7.55;;
18929;SDS011;43305;52.186;5.598;2023-04-15T08:52:08;12.50;;;6.95;;
18929;SDS011;43305;52.186;5.598;2023-04-15T08:54:36;12.18;;;7.35;;
18929;SDS011;43305;52.186;5.598;2023-04-15T08:57:03;12.50;;;5.78;;
18929;SDS011;43305;52.186;5.598;2023-04-15T08:59:32;9.15;;;5.40;;
18929;SDS011;43305;52.186;5.598;2023-04-15T09:01:59;10.77;;;6.25;;
18929;SDS011;43305;52.186;5.598;2023-04-15T09:04:27;11.88;;;6.43;;
18929;SDS011;43305;52.186;5.598;2023-04-15T09:06:55;12.95;;;7.82;;
18929;SDS011;43305;52.186;5.598;2023-04-15T09:09:22;11.52;;;6.18;;
18929;SDS011;43305;52.186;5.598;2023-04-15T09:11:51;8.13;;;5.50;;
18929;SDS011;43305;52.186;5.598;2023-04-15T09:14:18;8.18;;;4.90;;
18929;SDS011;43305;52.186;5.598;2023-04-15T09:16:58;8.55;;;4.78;;
18929;SDS011;43305;52.186;5.598;2023-04-15T09:19:25;6.22;;;3.75;;
18929;SDS011;43305;52.186;5.598;2023-04-15T09:21:53;6.80;;;3.80;;
18929;SDS011;43305;52.186;5.598;2023-04-15T09:24:22;7.25;;;4.18;;
18929;SDS011;43305;52.186;5.598;2023-04-15T09:26:51;5.47;;;3.40;;
18929;SDS011;43305;52.186;5.598;2023-04-15T09:29:23;5.35;;;3.45;;
18929;SDS011;43305;52.186;5.598;2023-04-15T09:31:51;5.03;;;2.83;;
